Time;durP1;ratioP1;P1;durP2;ratioP2;P2;SDS_P1;SDS_P2;PMS_P1;PMS_P2;Temp;Humidity;BMP_temperature;BMP_pressure;BME280_temperature;BME280_humidity;BME280_pressure;Samples;Min_cycle;Max_cycle;Signal;HPM_P1;HPM_P2
2022/08/19 00:01:13;;;;;;;2.28;0.80;;;24.20;86.60;;;;;;5055258;28;20025;-81
2022/08/19 00:03:39;;;;;;;1.25;1.15;;;24.20;86.70;;;;;;5055122;28;20033;-81
2022/08/19 00:06:05;;;;;;;1.20;1.02;;;24.20;86.60;;;;;;5054865;28;20108;-81
2022/08/19 00:08:31;;;;;;;0.90;0.73;;;24.20;86.60;;;;;;5055487;28;20029;-81
2022/08/19 00:10:57;;;;;;;0.93;0.80;;;24.20;86.60;;;;;;5055297;28;20532;-81
2022/08/19 00:13:23;;;;;;;0.90;0.85;;;24.20;86.60;;;;;;5055092;28;20104;-81
2022/08/19 00:15:48;;;;;;;1.50;1.00;;;24.30;86.60;;;;;;5055091;28;20059;-81
2022/08/19 00:18:14;;;;;;;2.22;0.85;;;24.20;86.50;;;;;;5054515;28;20107;-81
2022/08/19 00:20:40;;;;;;;1.48;1.00;;;24.20;86.40;;;;;;5055257;28;20504;-81
2022/08/19 00:23:06;;;;;;;1.30;1.10;;;24.20;86.40;;;;;;5054807;28;20025;-81
2022/08/19 00:25:32;;;;;;;1.08;0.98;;;24.20;86.40;;;;;;5054563;28;20068;-81
2022/08/19 00:27:59;;;;;;;0.85;0.70;;;24.20;86.40;;;;;;5054768;28;20048;-81
2022/08/19 00:30:27;;;;;;;1.23;0.80;;;24.20;86.60;;;;;;5054805;28;20468;-81
2022/08/19 00:32:54;;;;;;;0.85;0.77;;;24.20;86.70;;;;;;5054440;28;20021;-81
2022/08/19 00:35:20;;;;;;;0.80;0.80;;;24.20;86.70;;;;;;5054890;28;20044;-81
2022/08/19 00:37:47;;;;;;;1.50;1.10;;;24.10;86.60;;;;;;5054404;28;20489;-81
2022/08/19 00:40:14;;;;;;;1.80;0.98;;;24.20;86.70;;;;;;5054318;28;20115;-81
2022/08/19 00:42:40;;;;;;;1.27;1.10;;;24.10;87.30;;;;;;5054403;28;20025;-81
2022/08/19 00:45:16;;;;;;;1.23;0.90;;;24.20;86.70;;;;;;5054471;28;20029;-80
2022/08/19 00:47:44;;;;;;;2.65;0.90;;;24.20;86.60;;;;;;5053732;28;20025;-80
2022/08/19 00:50:12;;;;;;;1.38;1.00;;;24.20;86.50;;;;;;5054311;28;20366;-81
2022/08/19 00:52:44;;;;;;;1.30;1.20;;;24.20;86.50;;;;;;5054330;28;20029;-81
2022/08/19 00:55:14;;;;;;;1.10;0.95;;;24.10;86.50;;;;;;5054035;28;20017;-81
2022/08/19 00:57:45;;;;;;;1.67;1.00;;;24.20;86.50;;;;;;5054134;28;20526;-80
2022/08/19 01:00:15;;;;;;;1.27;1.13;;;24.20;86.50;;;;;;5054416;28;20067;-81
2022/08/19 01:02:42;;;;;;;1.63;1.45;;;24.20;86.50;;;;;;5053862;28;20028;-80
2022/08/19 01:05:15;;;;;;;2.75;1.30;;;24.10;86.50;;;;;;5054161;28;20036;-80
2022/08/19 01:07:41;;;;;;;1.52;1.42;;;24.10;86.60;;;;;;5054351;28;20025;-80
2022/08/19 01:10:10;;;;;;;1.48;1.00;;;24.10;86.60;;;;;;5054073;28;20029;-81
2022/08/19 01:12:37;;;;;;;1.92;1.23;;;24.10;86.60;;;;;;5053791;28;20476;-80
2022/08/19 01:15:05;;;;;;;1.27;1.08;;;24.10;86.60;;;;;;5053833;28;20029;-81
2022/08/19 01:17:31;;;;;;;1.63;1.10;;;24.10;86.60;;;;;;5053692;28;20039;-81
2022/08/19 01:19:56;;;;;;;1.30;1.20;;;24.10;87.20;;;;;;5053795;28;20029;-81
2022/08/19 01:22:42;;;;;;;1.60;1.50;;;24.10;86.50;;;;;;5053793;28;20025;-81
2022/08/19 01:25:08;;;;;;;2.05;1.42;;;24.10;86.50;;;;;;5053410;28;20052;-80
2022/08/19 01:27:43;;;;;;;1.50;1.27;;;24.10;86.40;;;;;;5053825;28;20017;-80
2022/08/19 01:30:11;;;;;;;1.60;1.40;;;24.10;86.40;;;;;;5053310;28;20503;-81
2022/08/19 01:32:37;;;;;;;1.98;1.42;;;24.10;86.50;;;;;;5053948;28;20032;-81
2022/08/19 01:35:04;;;;;;;1.38;1.27;;;24.10;86.50;;;;;;5053437;28;20100;-81
2022/08/19 01:37:30;;;;;;;1.23;1.13;;;24.10;86.40;;;;;;5053297;28;20392;-81
2022/08/19 01:39:56;;;;;;;2.67;1.27;;;24.10;86.40;;;;;;5053441;28;20025;-81
2022/08/19 01:42:22;;;;;;;1.48;1.38;;;24.10;86.30;;;;;;5053313;28;20027;-81
2022/08/19 01:44:47;;;;;;;1.10;1.00;;;24.10;86.30;;;;;;5053319;28;20108;-80
2022/08/19 01:47:13;;;;;;;1.58;1.45;;;24.10;86.40;;;;;;5053433;28;20229;-80
2022/08/19 01:49:38;;;;;;;1.60;1.48;;;24.10;86.50;;;;;;5053308;28;20021;-80
2022/08/19 01:52:05;;;;;;;1.17;1.08;;;24.10;86.40;;;;;;5053502;28;20056;-80
2022/08/19 01:54:31;;;;;;;2.85;1.80;;;24.10;86.40;;;;;;5053250;28;20025;-80
2022/08/19 01:57:04;;;;;;;2.35;2.15;;;24.00;86.40;;;;;;5053036;28;20037;-80
2022/08/19 01:59:32;;;;;;;2.33;1.65;;;24.00;86.40;;;;;;5053305;28;20032;-81
2022/08/19 02:01:58;;;;;;;2.10;1.83;;;24.00;86.40;;;;;;5053255;28;20032;-80
2022/08/19 02:04:25;;;;;;;1.65;1.52;;;23.90;86.50;;;;;;5053114;28;20029;-80
2022/08/19 02:06:50;;;;;;;1.88;1.77;;;23.90;86.40;;;;;;5052789;28;20025;-80
2022/08/19 02:09:16;;;;;;;1.90;1.80;;;23.90;86.50;;;;;;5053328;28;20054;-80
2022/08/19 02:11:42;;;;;;;5.13;4.10;;;23.90;86.50;;;;;;5052976;28;20021;-81
2022/08/19 02:14:08;;;;;;;1.95;1.58;;;23.90;86.30;;;;;;5053044;28;20033;-80
2022/08/19 02:16:36;;;;;;;2.28;2.08;;;23.80;86.40;;;;;;5052646;28;20034;-80
2022/08/19 02:19:03;;;;;;;2.20;1.55;;;23.70;86.60;;;;;;5053223;28;20033;-80
2022/08/19 02:21:29;;;;;;;1.70;1.55;;;23.70;86.90;;;;;;5052897;28;20104;-80
2022/08/19 02:23:55;;;;;;;2.50;1.55;;;23.70;87.00;;;;;;5052970;28;20120;-80
2022/08/19 02:26:21;;;;;;;2.10;1.85;;;23.80;87.00;;;;;;5052629;28;20496;-80
2022/08/19 02:28:48;;;;;;;1.83;1.60;;;23.80;87.00;;;;;;5053232;28;20117;-80
2022/08/19 02:31:17;;;;;;;3.63;1.75;;;23.70;87.00;;;;;;5053429;28;20031;-80
2022/08/19 02:33:43;;;;;;;1.92;1.42;;;23.70;87.00;;;;;;5052791;28;20033;-80
2022/08/19 02:36:10;;;;;;;1.88;1.77;;;23.70;86.90;;;;;;5053034;28;20021;-80
2022/08/19 02:38:36;;;;;;;4.38;1.90;;;23.70;86.80;;;;;;5052723;28;20032;-80
2022/08/19 02:41:14;;;;;;;1.40;1.30;;;23.70;86.90;;;;;;5052640;28;20484;-80
2022/08/19 02:43:40;;;;;;;2.13;1.35;;;23.70;87.00;;;;;;5052852;28;20396;-80
2022/08/19 02:46:17;;;;;;;1.88;1.40;;;23.70;87.00;;;;;;5052607;28;20464;-80
2022/08/19 02:48:43;;;;;;;1.40;1.20;;;23.70;87.00;;;;;;5053073;28;20088;-80
2022/08/19 02:51:15;;;;;;;1.08;0.98;;;23.70;86.90;;;;;;5052899;28;20021;-80
2022/08/19 02:53:40;;;;;;;2.35;2.15;;;23.70;86.90;;;;;;5052674;28;20021;-80
2022/08/19 02:56:07;;;;;;;1.50;1.40;;;23.70;86.60;;;;;;5052652;28;20036;-80
2022/08/19 02:58:33;;;;;;;2.50;1.60;;;23.80;86.80;;;;;;5052862;28;20404;-80
2022/08/19 03:00:59;;;;;;;1.55;1.45;;;23.70;86.70;;;;;;5052283;28;20028;-80
2022/08/19 03:03:24;;;;;;;1.27;1.17;;;23.80;86.70;;;;;;5052829;28;20026;-80
2022/08/19 03:05:50;;;;;;;1.50;1.25;;;23.70;87.30;;;;;;5052850;28;20369;-80
2022/08/19 03:08:16;;;;;;;1.40;1.20;;;23.80;86.70;;;;;;5052547;28;20400;-80
2022/08/19 03:10:44;;;;;;;1.48;1.38;;;23.80;86.70;;;;;;5052802;28;20495;-80
2022/08/19 03:13:11;;;;;;;1.92;1.33;;;23.80;86.70;;;;;;5056209;28;20056;-80
2022/08/19 03:15:47;;;;;;;2.00;1.52;;;23.80;86.70;;;;;;5056541;28;20033;-80
2022/08/19 03:18:13;;;;;;;2.05;1.65;;;23.80;86.70;;;;;;5055892;28;20037;-80
2022/08/19 03:20:45;;;;;;;2.15;1.23;;;23.80;86.70;;;;;;5056372;28;20033;-82
2022/08/19 03:23:12;;;;;;;2.53;1.80;;;23.80;86.60;;;;;;5055921;28;20202;-80
2022/08/19 03:25:41;;;;;;;1.70;1.23;;;23.80;86.60;;;;;;5055752;28;20053;-80
2022/08/19 03:28:07;;;;;;;1.95;1.58;;;23.80;86.60;;;;;;5055857;28;20507;-80
2022/08/19 03:30:34;;;;;;;2.35;2.05;;;23.80;86.60;;;;;;5056098;28;20076;-80
2022/08/19 03:32:59;;;;;;;1.70;1.60;;;23.70;86.60;;;;;;5055776;28;20362;-80
2022/08/19 03:35:25;;;;;;;1.50;1.40;;;23.70;86.60;;;;;;5055724;28;20119;-80
2022/08/19 03:37:52;;;;;;;2.05;1.85;;;23.70;86.60;;;;;;5055993;28;20108;-80
2022/08/19 03:40:18;;;;;;;2.10;1.90;;;23.80;86.70;;;;;;5055975;28;20399;-80
2022/08/19 03:42:45;;;;;;;1.80;1.33;;;23.70;86.60;;;;;;5055944;28;20106;-80
2022/08/19 03:45:11;;;;;;;3.13;2.28;;;23.70;86.50;;;;;;5055895;28;20033;-80
2022/08/19 03:47:37;;;;;;;2.63;2.42;;;23.70;86.50;;;;;;5055646;28;20642;-80
2022/08/19 03:50:04;;;;;;;5.80;3.47;;;23.70;86.50;;;;;;5055423;28;20469;-80
2022/08/19 03:52:30;;;;;;;3.40;2.33;;;23.60;85.60;;;;;;5055844;28;20051;-80
2022/08/19 03:54:55;;;;;;;2.25;1.85;;;23.60;86.00;;;;;;5055395;28;20453;-81
2022/08/19 03:57:21;;;;;;;1.70;1.60;;;23.50;86.40;;;;;;5055613;28;20357;-80
2022/08/19 03:59:46;;;;;;;2.55;1.75;;;23.40;86.60;;;;;;5055342;28;20069;-79
2022/08/19 04:02:12;;;;;;;1.67;1.58;;;23.50;86.90;;;;;;5055329;28;20025;-80
2022/08/19 04:04:40;;;;;;;1.88;1.08;;;23.40;86.90;;;;;;5055285;28;20036;-80
2022/08/19 04:07:08;;;;;;;2.65;2.03;;;23.40;87.10;;;;;;5055311;28;20103;-80
2022/08/19 04:09:34;;;;;;;2.72;1.40;;;23.40;87.10;;;;;;5055387;28;20615;-80
2022/08/19 04:12:00;;;;;;;2.25;1.80;;;23.40;87.10;;;;;;5055386;28;20047;-80
2022/08/19 04:14:31;;;;;;;1.38;1.23;;;23.40;87.10;;;;;;5055064;28;20461;-80
2022/08/19 04:16:59;;;;;;;2.17;1.98;;;23.40;87.10;;;;;;5054835;28;20021;-80
2022/08/19 04:19:25;;;;;;;1.75;1.20;;;23.40;87.30;;;;;;5055174;28;20041;-80
2022/08/19 04:21:54;;;;;;;1.58;1.48;;;23.40;87.30;;;;;;5054676;28;20028;-80
2022/08/19 04:24:20;;;;;;;1.50;1.40;;;23.40;87.20;;;;;;5053930;28;20053;-80
2022/08/19 04:26:46;;;;;;;1.92;1.83;;;23.40;87.20;;;;;;5054572;28;20560;-80
2022/08/19 04:29:18;;;;;;;2.08;1.88;;;23.40;87.20;;;;;;5054786;28;20487;-80
2022/08/19 04:31:44;;;;;;;1.08;0.98;;;23.40;87.30;;;;;;5054933;28;20040;-80
2022/08/19 04:34:12;;;;;;;1.80;1.48;;;23.40;87.30;;;;;;5054938;28;20033;-80
2022/08/19 04:36:41;;;;;;;2.40;1.80;;;23.40;87.30;;;;;;5054532;28;20025;-80
2022/08/19 04:39:15;;;;;;;2.08;1.50;;;23.40;87.30;;;;;;5054396;28;20033;-80
2022/08/19 04:44:25;;;;;;;1.10;1.00;;;23.40;87.40;;;;;;5054728;28;20125;-80
2022/08/19 04:46:51;;;;;;;1.23;1.13;;;23.40;87.40;;;;;;5054482;28;20036;-80
2022/08/19 04:49:22;;;;;;;1.65;1.55;;;23.40;87.40;;;;;;5054332;28;20025;-80
2022/08/19 04:51:49;;;;;;;2.05;1.73;;;23.40;87.30;;;;;;5054648;28;20035;-80
2022/08/19 04:54:17;;;;;;;5.03;2.00;;;23.40;87.30;;;;;;5054436;28;20120;-80
2022/08/19 04:56:43;;;;;;;2.25;1.85;;;23.40;87.30;;;;;;5054527;28;20028;-80
2022/08/19 04:59:10;;;;;;;2.47;2.00;;;23.20;87.40;;;;;;5054091;28;20029;-80
2022/08/19 05:01:37;;;;;;;2.15;1.70;;;23.20;87.60;;;;;;5054046;28;20480;-80
2022/08/19 05:04:05;;;;;;;1.10;1.00;;;23.20;87.80;;;;;;5054035;28;20025;-80
2022/08/19 05:06:34;;;;;;;1.25;1.15;;;23.20;87.80;;;;;;5053991;28;20031;-80
2022/08/19 05:09:04;;;;;;;1.55;1.00;;;23.30;87.80;;;;;;5054239;28;20100;-80
2022/08/19 05:11:33;;;;;;;1.67;1.58;;;23.30;87.70;;;;;;5054058;28;20025;-80
2022/08/19 05:13:59;;;;;;;2.03;1.67;;;23.30;87.60;;;;;;5054315;28;20031;-80
2022/08/19 05:16:26;;;;;;;2.53;2.20;;;23.40;87.50;;;;;;5053903;28;20033;-80
2022/08/19 05:24:23;;;;;;;1.60;1.50;;;23.40;87.30;;;;;;5053791;28;20473;-80
2022/08/19 05:26:50;;;;;;;2.50;1.98;;;23.40;87.20;;;;;;5053650;28;20018;-80
2022/08/19 05:29:19;;;;;;;1.92;1.83;;;23.40;87.30;;;;;;5053974;28;20111;-80
2022/08/19 05:31:46;;;;;;;2.35;1.88;;;23.30;87.30;;;;;;5053560;28;20472;-80
2022/08/19 05:34:13;;;;;;;2.60;2.40;;;23.30;87.50;;;;;;5053675;28;20112;-80
2022/08/19 05:36:43;;;;;;;2.65;2.40;;;23.30;87.50;;;;;;5053470;28;20025;-80
2022/08/19 05:39:13;;;;;;;1.75;1.65;;;23.30;87.60;;;;;;5053453;28;20039;-80
2022/08/19 05:41:43;;;;;;;1.88;1.73;;;23.30;87.60;;;;;;5053723;28;20392;-80
2022/08/19 05:44:09;;;;;;;2.88;2.67;;;23.40;87.60;;;;;;5053646;28;20125;-80
2022/08/19 05:46:37;;;;;;;2.30;2.10;;;23.40;87.50;;;;;;5053223;28;20021;-80
2022/08/19 05:49:05;;;;;;;1.73;1.60;;;23.40;87.50;;;;;;5053440;28;20025;-80
2022/08/19 05:51:32;;;;;;;2.58;2.38;;;23.40;87.50;;;;;;5053047;28;20025;-80
2022/08/19 05:53:58;;;;;;;4.60;2.28;;;23.40;87.50;;;;;;5053138;28;20503;-80
2022/08/19 05:56:23;;;;;;;2.03;1.88;;;23.40;87.40;;;;;;5053392;28;20028;-80
2022/08/19 05:58:49;;;;;;;2.22;1.50;;;23.40;87.50;;;;;;5053310;28;20428;-80
2022/08/19 06:01:17;;;;;;;4.18;3.88;;;23.40;87.50;;;;;;5053101;28;20024;-80
2022/08/19 06:03:44;;;;;;;3.72;3.42;;;23.40;87.50;;;;;;5053293;28;20029;-80
2022/08/19 06:06:11;;;;;;;3.88;3.53;;;23.50;87.50;;;;;;5053319;28;20029;-80
2022/08/19 06:08:38;;;;;;;9.32;6.80;;;23.50;87.40;;;;;;5053004;28;20384;-80
2022/08/19 06:11:19;;;;;;;9.30;8.45;;;23.50;87.70;;;;;;5053267;28;20031;-80
2022/08/19 06:13:47;;;;;;;6.35;5.75;;;23.40;88.00;;;;;;5052975;28;20384;-80
2022/08/19 06:16:19;;;;;;;6.53;5.95;;;23.30;88.30;;;;;;5053233;28;20032;-79
2022/08/19 06:18:45;;;;;;;6.50;5.90;;;23.30;88.50;;;;;;5052809;28;20036;-80
2022/08/19 06:21:10;;;;;;;10.40;9.45;;;23.20;88.90;;;;;;5052972;28;20075;-80
2022/08/19 06:23:36;;;;;;;11.60;10.52;;;23.20;89.30;;;;;;5052880;28;20388;-80
2022/08/19 06:26:01;;;;;;;10.48;9.57;;;23.10;90.00;;;;;;5053164;28;20112;-80
2022/08/19 06:28:27;;;;;;;14.32;13.00;;;23.00;90.20;;;;;;5052960;28;20078;-80
2022/08/19 06:30:53;;;;;;;12.40;10.65;;;23.00;90.50;;;;;;5052949;28;20505;-80
2022/08/19 06:33:18;;;;;;;15.48;13.88;;;23.00;90.50;;;;;;5052388;28;20028;-80
2022/08/19 06:35:44;;;;;;;13.35;11.95;;;22.90;90.70;;;;;;5053154;28;20483;-79
2022/08/19 06:38:10;;;;;;;18.33;15.40;;;22.90;90.80;;;;;;5052672;28;20044;-79
2022/08/19 06:40:37;;;;;;;12.65;11.30;;;22.80;91.10;;;;;;5052873;28;20059;-78
2022/08/19 06:43:03;;;;;;;19.95;17.13;;;22.80;91.10;;;;;;5052751;28;20541;-78
2022/08/19 06:45:29;;;;;;;16.73;15.00;;;22.80;91.40;;;;;;5052679;28;20107;-78
2022/08/19 06:47:55;;;;;;;16.65;14.95;;;22.70;91.40;;;;;;5056559;28;20040;-78
2022/08/19 06:50:22;;;;;;;18.30;16.40;;;22.70;91.50;;;;;;5056752;28;20025;-78
2022/08/19 06:52:48;;;;;;;15.70;12.68;;;22.60;91.70;;;;;;5056341;28;20414;-78
2022/08/19 06:55:15;;;;;;;18.13;14.18;;;22.50;91.80;;;;;;5056665;28;20396;-78
2022/08/19 06:57:42;;;;;;;27.80;21.02;;;22.50;91.90;;;;;;5056495;28;20070;-78
2022/08/19 07:00:15;;;;;;;34.17;24.30;;;22.50;92.10;;;;;;5056553;28;20025;-78
2022/08/19 07:02:42;;;;;;;23.77;18.02;;;22.40;92.40;;;;;;5056437;28;20033;-78
2022/08/19 07:05:08;;;;;;;21.50;16.02;;;22.40;92.60;;;;;;5056327;28;20075;-78
2022/08/19 07:07:34;;;;;;;50.60;32.05;;;22.30;92.70;;;;;;5056329;28;20033;-79
2022/08/19 07:10:00;;;;;;;60.00;37.75;;;22.30;92.80;;;;;;5056512;28;20112;-79
2022/08/19 07:12:26;;;;;;;67.72;40.53;;;22.30;93.10;;;;;;5056156;28;20057;-79
2022/08/19 07:14:52;;;;;;;37.65;22.88;;;22.20;93.30;;;;;;5056181;28;20024;-79
2022/08/19 07:17:19;;;;;;;53.33;32.50;;;22.10;93.30;;;;;;5056107;28;20037;-79
2022/08/19 07:19:45;;;;;;;60.25;38.15;;;22.10;93.40;;;;;;5056337;28;20029;-79
2022/08/19 07:22:11;;;;;;;58.53;37.75;;;22.10;93.60;;;;;;5056210;28;20067;-79
2022/08/19 07:24:37;;;;;;;40.97;27.52;;;22.00;93.70;;;;;;5055819;28;20140;-78
2022/08/19 07:27:06;;;;;;;52.88;32.80;;;22.00;93.70;;;;;;5055665;28;20068;-78
2022/08/19 07:29:33;;;;;;;56.40;36.45;;;22.00;93.70;;;;;;5056166;28;20025;-78
2022/08/19 07:32:00;;;;;;;67.45;42.03;;;22.10;93.70;;;;;;5056105;28;20033;-77
2022/08/19 07:34:27;;;;;;;35.55;24.90;;;22.10;93.80;;;;;;5055995;28;20021;-78
2022/08/19 07:36:54;;;;;;;59.75;39.15;;;22.10;93.70;;;;;;5055302;28;20480;-78
2022/08/19 07:39:23;;;;;;;47.60;33.65;;;22.20;93.70;;;;;;5056033;28;20044;-78
2022/08/19 07:41:50;;;;;;;64.07;41.63;;;22.10;93.50;;;;;;5055906;28;20024;-78
2022/08/19 07:44:17;;;;;;;58.38;39.67;;;22.20;93.50;;;;;;5055549;28;20485;-79
2022/08/19 07:46:45;;;;;;;42.55;28.60;;;22.20;93.50;;;;;;5055412;28;20473;-79
2022/08/19 07:49:17;;;;;;;64.60;41.25;;;22.20;93.50;;;;;;5055357;28;20025;-78
2022/08/19 07:51:43;;;;;;;72.50;48.53;;;22.30;93.70;;;;;;5055461;28;20027;-79
2022/08/19 07:54:11;;;;;;;73.07;48.83;;;22.20;93.70;;;;;;5055382;28;20469;-79
2022/08/19 07:56:37;;;;;;;53.75;37.95;;;22.20;93.60;;;;;;5055037;28;20108;-79
2022/08/19 07:59:02;;;;;;;42.50;28.60;;;22.10;93.70;;;;;;5055372;28;20124;-79
2022/08/19 08:01:28;;;;;;;42.70;29.88;;;22.20;93.70;;;;;;5055561;28;20025;-79
2022/08/19 08:09:35;;;;;;;47.65;35.17;;;22.30;93.50;;;;;;5055258;28;20067;-79
2022/08/19 08:12:06;;;;;;;64.75;46.95;;;22.30;93.50;;;;;;5055121;28;20029;-79
2022/08/19 08:14:38;;;;;;;44.80;32.42;;;22.40;93.30;;;;;;5055160;28;20021;-79
2022/08/19 08:17:08;;;;;;;49.67;35.28;;;22.40;93.30;;;;;;5054717;28;20032;-79
2022/08/19 08:19:34;;;;;;;59.30;45.58;;;22.50;93.40;;;;;;5054778;28;20223;-79
2022/08/19 08:22:02;;;;;;;59.20;46.17;;;22.50;93.10;;;;;;5054819;28;20049;-79
2022/08/19 08:24:30;;;;;;;56.85;42.45;;;22.70;92.90;;;;;;5052965;28;20056;-79
2022/08/19 08:26:58;;;;;;;51.47;39.50;;;22.80;92.80;;;;;;5054323;28;20048;-79
2022/08/19 08:29:25;;;;;;;58.95;44.50;;;22.90;92.60;;;;;;5054782;28;20032;-79
2022/08/19 08:31:51;;;;;;;50.33;39.05;;;23.00;92.30;;;;;;5055109;28;20053;-79
2022/08/19 08:34:17;;;;;;;48.10;36.55;;;23.10;92.10;;;;;;5054476;28;20403;-79
2022/08/19 08:36:45;;;;;;;42.17;31.38;;;23.20;91.80;;;;;;5054840;28;20079;-80
2022/08/19 08:39:14;;;;;;;44.88;35.40;;;23.40;91.40;;;;;;5054491;28;20548;-79
2022/08/19 08:41:48;;;;;;;49.67;38.55;;;23.60;91.20;;;;;;5054405;28;20056;-79
2022/08/19 08:44:19;;;;;;;52.13;39.35;;;23.70;90.50;;;;;;5054623;28;20048;-79
2022/08/19 08:46:59;;;;;;;40.78;30.10;;;23.80;90.60;;;;;;5054148;28;20381;-80
2022/08/19 08:49:43;;;;;;;51.83;40.58;;;23.90;90.50;;;;;;5054525;28;20025;-80
2022/08/19 08:52:29;;;;;;;45.83;34.40;;;23.90;90.20;;;;;;5054312;28;20461;-80
2022/08/19 08:54:58;;;;;;;39.25;30.30;;;23.90;90.30;;;;;;5053946;28;20056;-80
2022/08/19 08:57:34;;;;;;;38.03;29.50;;;24.00;90.10;;;;;;5053883;28;20546;-81
2022/08/19 09:00:05;;;;;;;38.97;30.15;;;24.10;88.90;;;;;;5054189;28;20392;-80
2022/08/19 09:02:31;;;;;;;42.80;30.77;;;24.10;87.40;;;;;;5054182;28;20017;-81
2022/08/19 09:04:56;;;;;;;35.00;24.40;;;24.10;87.20;;;;;;5053651;28;20427;-81
2022/08/19 09:07:49;;;;;;;39.50;29.42;;;24.20;87.20;;;;;;5054185;28;20029;-80
2022/08/19 09:10:26;;;;;;;;;;;24.40;87.10;;;;;;5053666;28;20425;-80
2022/08/19 09:12:55;;;;;;;37.85;29.13;;;24.40;86.60;;;;;;5054013;28;19950;-81
2022/08/19 09:15:31;;;;;;;32.40;26.13;;;24.40;86.40;;;;;;5053871;28;20166;-81
2022/08/19 09:18:01;;;;;;;32.88;26.40;;;24.40;86.30;;;;;;5053754;28;20037;-81
2022/08/19 09:20:27;;;;;;;36.97;29.10;;;24.60;86.10;;;;;;5054346;28;20089;-81
2022/08/19 09:22:53;;;;;;;41.17;31.48;;;24.60;85.90;;;;;;5053809;28;20434;-81
2022/08/19 09:25:22;;;;;;;40.97;28.38;;;24.60;85.50;;;;;;5053382;28;20127;-81
2022/08/19 09:27:49;;;;;;;37.15;26.83;;;24.70;85.90;;;;;;5053529;28;20025;-81
2022/08/19 09:30:18;;;;;;;39.67;29.08;;;24.70;86.00;;;;;;5053868;28;20064;-81
2022/08/19 09:32:45;;;;;;;43.08;31.00;;;24.60;85.80;;;;;;5053599;28;20025;-81
2022/08/19 09:35:12;;;;;;;25.60;19.23;;;24.50;85.80;;;;;;5053301;28;20025;-81
2022/08/19 09:37:38;;;;;;;36.35;26.23;;;24.50;86.40;;;;;;5053844;28;20041;-81
2022/08/19 09:40:04;;;;;;;32.15;25.02;;;24.40;86.50;;;;;;5053692;28;20396;-81
2022/08/19 09:42:30;;;;;;;36.47;27.55;;;24.40;86.90;;;;;;5053424;28;20032;-80
2022/08/19 09:44:55;;;;;;;38.65;27.50;;;24.30;87.30;;;;;;5053007;28;20388;-81
2022/08/19 09:47:21;;;;;;;36.72;26.27;;;24.20;87.80;;;;;;5053594;28;20043;-80
2022/08/19 09:49:48;;;;;;;33.55;25.23;;;24.20;87.50;;;;;;5053512;28;20025;-81
2022/08/19 09:52:15;;;;;;;30.88;24.02;;;24.10;86.90;;;;;;5052960;28;20028;-80
2022/08/19 09:54:41;;;;;;;34.38;24.45;;;24.10;87.00;;;;;;5053382;28;20101;-81
2022/08/19 09:57:07;;;;;;;34.35;24.92;;;24.00;87.40;;;;;;5053032;28;20036;-81
2022/08/19 09:59:33;;;;;;;29.33;21.83;;;24.10;87.10;;;;;;5052962;28;20538;-81
2022/08/19 10:01:58;;;;;;;28.83;19.95;;;24.10;86.40;;;;;;5052792;28;20412;-80
2022/08/19 10:05:47;;;;;;;28.25;19.30;;;24.20;86.70;;;;;;5053245;28;20091;-81
2022/08/19 10:07:13;;;;;;;32.53;23.05;;;24.40;86.00;;;;;;5053127;28;20094;-81
2022/08/19 10:09:40;;;;;;;29.60;21.42;;;24.60;85.60;;;;;;5052854;28;20029;-82
2022/08/19 10:12:07;;;;;;;34.95;25.20;;;24.70;84.70;;;;;;5052735;28;20069;-80
2022/08/19 10:14:33;;;;;;;31.83;23.00;;;24.80;83.80;;;;;;5053031;28;20047;-80
2022/08/19 10:17:00;;;;;;;30.23;20.83;;;24.90;83.50;;;;;;5052800;28;20036;-80
2022/08/19 10:19:32;;;;;;;26.63;20.27;;;25.00;83.10;;;;;;5052744;28;20044;-82
2022/08/19 10:21:57;;;;;;;20.83;15.30;;;25.00;81.60;;;;;;5054216;28;20532;-81
2022/08/19 10:24:25;;;;;;;26.35;18.05;;;24.90;82.30;;;;;;5055208;28;20064;-80
2022/08/19 10:26:51;;;;;;;27.85;20.52;;;24.90;82.50;;;;;;5055201;28;20032;-79
2022/08/19 10:29:16;;;;;;;32.53;21.00;;;25.00;82.90;;;;;;5056815;28;20024;-78
2022/08/19 10:31:42;;;;;;;26.30;17.95;;;25.00;81.70;;;;;;5055912;28;20100;-79
2022/08/19 10:34:08;;;;;;;30.73;21.63;;;25.10;81.30;;;;;;5056682;28;20384;-79
2022/08/19 10:36:36;;;;;;;28.50;19.50;;;25.00;80.60;;;;;;5056801;28;20024;-78
2022/08/19 10:39:05;;;;;;;30.15;20.55;;;24.90;81.50;;;;;;5056444;28;20472;-78
2022/08/19 10:41:33;;;;;;;26.95;19.33;;;24.90;82.30;;;;;;5056200;28;20392;-79
2022/08/19 10:44:01;;;;;;;30.85;21.48;;;25.00;82.40;;;;;;5056668;28;20427;-79
2022/08/19 10:46:31;;;;;;;27.48;20.10;;;25.00;82.30;;;;;;5056260;28;20387;-79
2022/08/19 10:48:56;;;;;;;33.67;22.10;;;25.10;82.30;;;;;;5056425;28;20071;-80
2022/08/19 10:54:06;;;;;;;31.45;21.00;;;25.40;81.20;;;;;;5056377;28;20078;-80
2022/08/19 10:56:52;;;;;;;26.70;19.65;;;25.50;80.50;;;;;;5056257;28;20029;-80
2022/08/19 10:59:28;;;;;;;26.35;18.90;;;25.50;80.20;;;;;;5056528;28;20411;-80
2022/08/19 11:01:59;;;;;;;27.77;20.55;;;25.50;80.20;;;;;;5056427;28;20033;-79
2022/08/19 11:04:25;;;;;;;25.25;17.80;;;25.50;80.10;;;;;;5055935;28;20055;-80
2022/08/19 11:06:50;;;;;;;24.88;18.38;;;25.50;80.00;;;;;;5056626;28;20487;-80
2022/08/19 11:09:19;;;;;;;24.95;17.20;;;25.60;80.00;;;;;;5056401;28;20044;-80
2022/08/19 11:11:47;;;;;;;27.90;19.52;;;25.50;80.20;;;;;;5056604;28;20071;-79
2022/08/19 11:14:15;;;;;;;24.48;17.38;;;25.60;79.30;;;;;;5055986;28;20036;-79
2022/08/19 11:16:42;;;;;;;21.90;16.00;;;25.70;79.00;;;;;;5055798;28;20021;-79
2022/08/19 11:19:10;;;;;;;30.70;18.30;;;25.70;79.30;;;;;;5056208;28;20037;-80
2022/08/19 11:21:40;;;;;;;25.63;17.63;;;25.60;79.20;;;;;;5055867;28;20488;-81
2022/08/19 11:24:13;;;;;;;23.05;17.50;;;25.70;78.10;;;;;;5055599;28;20457;-83
2022/08/19 11:26:40;;;;;;;25.80;16.80;;;25.70;78.60;;;;;;5055721;28;20033;-83
2022/08/19 11:29:11;;;;;;;23.33;16.52;;;25.80;79.20;;;;;;5055853;28;20029;-83
2022/08/19 11:31:38;;;;;;;19.98;15.43;;;26.00;79.30;;;;;;5055727;28;20370;-82
2022/08/19 11:34:07;;;;;;;26.02;16.42;;;26.20;77.80;;;;;;5055983;28;20392;-83
2022/08/19 11:36:34;;;;;;;22.42;15.45;;;26.30;76.50;;;;;;5055761;28;20025;-83
2022/08/19 11:39:00;;;;;;;22.48;16.27;;;26.50;76.30;;;;;;5055351;28;20480;-83
2022/08/19 11:41:26;;;;;;;24.80;17.33;;;26.50;75.80;;;;;;5055643;28;20028;-83
2022/08/19 11:43:54;;;;;;;21.70;15.38;;;26.60;75.60;;;;;;5055535;28;20029;-82
2022/08/19 11:46:22;;;;;;;22.83;14.90;;;26.60;75.70;;;;;;5055856;28;20025;-82
2022/08/19 11:48:49;;;;;;;20.67;15.00;;;26.60;75.70;;;;;;5055489;28;20465;-83
2022/08/19 11:51:19;;;;;;;17.77;13.75;;;26.70;75.70;;;;;;5055395;28;20034;-83
2022/08/19 11:53:45;;;;;;;18.17;13.43;;;26.80;75.10;;;;;;5055417;28;20040;-83
2022/08/19 11:56:11;;;;;;;16.73;11.40;;;26.80;74.20;;;;;;5055262;28;20117;-83
2022/08/19 11:58:37;;;;;;;19.88;14.60;;;26.90;74.30;;;;;;5055136;28;20120;-83
2022/08/19 12:01:11;;;;;;;19.27;14.25;;;27.10;74.20;;;;;;5055263;28;20032;-83
2022/08/19 12:03:37;;;;;;;19.98;14.70;;;27.10;73.90;;;;;;5055367;28;20029;-83
2022/08/19 12:06:06;;;;;;;20.50;15.20;;;27.10;73.20;;;;;;5055063;28;20461;-83
2022/08/19 12:08:32;;;;;;;17.02;13.02;;;27.10;72.30;;;;;;5055445;28;20040;-83
2022/08/19 12:11:00;;;;;;;18.30;12.05;;;27.10;73.10;;;;;;5055093;28;20439;-83
2022/08/19 12:13:27;;;;;;;18.45;11.57;;;27.20;74.00;;;;;;5055364;28;20035;-83
2022/08/19 12:15:53;;;;;;;18.65;14.27;;;27.30;73.70;;;;;;5054749;28;20104;-83
2022/08/19 12:18:19;;;;;;;18.45;14.35;;;27.40;73.10;;;;;;5055191;28;20045;-83
2022/08/19 12:20:47;;;;;;;19.10;13.75;;;27.60;73.60;;;;;;5055128;28;20112;-83
2022/08/19 12:23:13;;;;;;;19.00;14.10;;;27.70;73.20;;;;;;5054611;28;20028;-82
2022/08/19 12:25:49;;;;;;;18.58;15.27;;;27.70;73.20;;;;;;5054762;28;20104;-83
2022/08/19 12:28:16;;;;;;;20.85;16.88;;;27.80;72.90;;;;;;5054989;28;20032;-83
2022/08/19 12:30:42;;;;;;;22.23;15.85;;;27.90;73.20;;;;;;5054981;28;20025;-83
2022/08/19 12:33:08;;;;;;;20.00;15.05;;;27.90;73.20;;;;;;5054919;28;20060;-83
2022/08/19 12:35:34;;;;;;;21.77;17.25;;;28.00;72.70;;;;;;5054531;28;20020;-83
2022/08/19 12:38:02;;;;;;;18.55;15.20;;;28.00;72.30;;;;;;5054511;28;20059;-83
2022/08/19 12:40:28;;;;;;;23.45;16.88;;;28.00;72.30;;;;;;5054884;28;20404;-83
2022/08/19 12:42:55;;;;;;;22.58;17.33;;;28.00;71.90;;;;;;5054560;28;20029;-83
2022/08/19 12:45:22;;;;;;;18.13;14.85;;;27.80;72.30;;;;;;5053457;28;20025;-83
2022/08/19 12:47:47;;;;;;;17.95;15.43;;;27.70;72.80;;;;;;5054616;28;20025;-83
2022/08/19 12:50:13;;;;;;;17.73;15.68;;;27.70;72.80;;;;;;5054726;28;20029;-83
2022/08/19 12:52:40;;;;;;;21.52;16.40;;;27.70;73.00;;;;;;5054435;28;20384;-83
2022/08/19 12:55:07;;;;;;;20.45;16.77;;;27.70;72.80;;;;;;5054369;28;20029;-83
2022/08/19 12:57:35;;;;;;;22.33;17.63;;;27.80;73.00;;;;;;5054159;28;20047;-82